sensor_id;sensor_type;location;lat;lon;timestamp;P1;durP1;ratioP1;P2;durP2;ratioP2
45388;SDS011;31127;52.078;4.370;2022-09-09T00:02:37;17.08;;;6.38;;
45388;SDS011;31127;52.078;4.370;2022-09-09T00:07:58;12.30;;;7.15;;
45388;SDS011;31127;52.078;4.370;2022-09-09T00:23:35;17.63;;;8.70;;
45388;SDS011;31127;52.078;4.370;2022-09-09T00:28:52;18.23;;;9.20;;
45388;SDS011;31127;52.078;4.370;2022-09-09T00:34:03;16.50;;;10.00;;
45388;SDS011;31127;52.078;4.370;2022-09-09T00:39:09;25.30;;;12.60;;
45388;SDS011;31127;52.078;4.370;2022-09-09T00:44:37;15.75;;;11.88;;
45388;SDS011;31127;52.078;4.370;2022-09-09T00:59:52;24.75;;;17.13;;
45388;SDS011;31127;52.078;4.370;2022-09-09T01:10:47;24.45;;;15.43;;
45388;SDS011;31127;52.078;4.370;2022-09-09T01:16:00;21.30;;;13.68;;
45388;SDS011;31127;52.078;4.370;2022-09-09T01:21:15;17.42;;;11.40;;
45388;SDS011;31127;52.078;4.370;2022-09-09T01:26:26;15.05;;;9.43;;
45388;SDS011;31127;52.078;4.370;2022-09-09T01:31:38;23.65;;;9.60;;
45388;SDS011;31127;52.078;4.370;2022-09-09T01:41:55;16.75;;;8.77;;
45388;SDS011;31127;52.078;4.370;2022-09-09T01:46:57;14.57;;;9.38;;
45388;SDS011;31127;52.078;4.370;2022-09-09T01:52:27;17.15;;;10.30;;
45388;SDS011;31127;52.078;4.370;2022-09-09T02:02:57;16.20;;;8.40;;
45388;SDS011;31127;52.078;4.370;2022-09-09T02:08:24;14.57;;;8.90;;
45388;SDS011;31127;52.078;4.370;2022-09-09T02:13:34;17.35;;;8.23;;
45388;SDS011;31127;52.078;4.370;2022-09-09T02:18:57;13.77;;;8.15;;
45388;SDS011;31127;52.078;4.370;2022-09-09T02:24:11;13.80;;;7.07;;
45388;SDS011;31127;52.078;4.370;2022-09-09T02:29:34;15.93;;;6.22;;
45388;SDS011;31127;52.078;4.370;2022-09-09T02:34:44;17.23;;;6.28;;
45388;SDS011;31127;52.078;4.370;2022-09-09T02:39:47;10.85;;;4.13;;
45388;SDS011;31127;52.078;4.370;2022-09-09T02:44:51;12.57;;;4.55;;
45388;SDS011;31127;52.078;4.370;2022-09-09T02:50:13;8.55;;;3.00;;
45388;SDS011;31127;52.078;4.370;2022-09-09T02:55:23;7.87;;;2.70;;
45388;SDS011;31127;52.078;4.370;2022-09-09T03:00:35;8.10;;;2.78;;
45388;SDS011;31127;52.078;4.370;2022-09-09T03:10:40;5.25;;;2.53;;
45388;SDS011;31127;52.078;4.370;2022-09-09T03:15:43;8.20;;;2.58;;
45388;SDS011;31127;52.078;4.370;2022-09-09T03:20:50;5.72;;;2.30;;
45388;SDS011;31127;52.078;4.370;2022-09-09T03:26:00;13.48;;;3.45;;
45388;SDS011;31127;52.078;4.370;2022-09-09T03:31:09;11.23;;;2.45;;
45388;SDS011;31127;52.078;4.370;2022-09-09T03:36:26;8.40;;;2.80;;
45388;SDS011;31127;52.078;4.370;2022-09-09T03:41:28;11.63;;;2.47;;
45388;SDS011;31127;52.078;4.370;2022-09-09T03:46:31;8.23;;;2.33;;
45388;SDS011;31127;52.078;4.370;2022-09-09T03:51:33;10.82;;;2.95;;
45388;SDS011;31127;52.078;4.370;2022-09-09T03:56:40;7.55;;;2.60;;
45388;SDS011;31127;52.078;4.370;2022-09-09T04:01:58;8.50;;;2.72;;
45388;SDS011;31127;52.078;4.370;2022-09-09T04:07:08;7.82;;;2.90;;
45388;SDS011;31127;52.078;4.370;2022-09-09T04:12:10;8.75;;;2.40;;
45388;SDS011;31127;52.078;4.370;2022-09-09T04:17:14;10.63;;;2.50;;
45388;SDS011;31127;52.078;4.370;2022-09-09T04:22:17;10.50;;;2.15;;
45388;SDS011;31127;52.078;4.370;2022-09-09T04:27:26;5.10;;;2.00;;
45388;SDS011;31127;52.078;4.370;2022-09-09T04:32:29;10.27;;;2.58;;
45388;SDS011;31127;52.078;4.370;2022-09-09T04:37:41;9.77;;;2.80;;
45388;SDS011;31127;52.078;4.370;2022-09-09T04:42:49;10.10;;;3.17;;
45388;SDS011;31127;52.078;4.370;2022-09-09T04:47:52;10.95;;;2.67;;
45388;SDS011;31127;52.078;4.370;2022-09-09T04:53:02;9.88;;;2.88;;
45388;SDS011;31127;52.078;4.370;2022-09-09T04:58:07;10.40;;;3.10;;
45388;SDS011;31127;52.078;4.370;2022-09-09T05:03:15;10.13;;;3.40;;
45388;SDS011;31127;52.078;4.370;2022-09-09T05:08:18;8.57;;;2.70;;
45388;SDS011;31127;52.078;4.370;2022-09-09T05:13:27;9.50;;;3.08;;
45388;SDS011;31127;52.078;4.370;2022-09-09T05:18:29;11.77;;;3.67;;
45388;SDS011;31127;52.078;4.370;2022-09-09T05:23:35;10.82;;;2.90;;
45388;SDS011;31127;52.078;4.370;2022-09-09T05:28:44;13.30;;;4.17;;
45388;SDS011;31127;52.078;4.370;2022-09-09T05:33:53;11.00;;;3.20;;
45388;SDS011;31127;52.078;4.370;2022-09-09T05:38:55;14.98;;;4.72;;
45388;SDS011;31127;52.078;4.370;2022-09-09T05:44:00;14.07;;;4.25;;
45388;SDS011;31127;52.078;4.370;2022-09-09T05:49:07;11.80;;;4.65;;
45388;SDS011;31127;52.078;4.370;2022-09-09T05:54:24;14.35;;;4.32;;
45388;SDS011;31127;52.078;4.370;2022-09-09T05:59:26;10.15;;;3.35;;
45388;SDS011;31127;52.078;4.370;2022-09-09T06:04:29;14.73;;;4.68;;
45388;SDS011;31127;52.078;4.370;2022-09-09T06:09:33;8.73;;;3.17;;
45388;SDS011;31127;52.078;4.370;2022-09-09T06:14:36;15.18;;;4.57;;
45388;SDS011;31127;52.078;4.370;2022-09-09T06:19:38;10.47;;;3.40;;
45388;SDS011;31127;52.078;4.370;2022-09-09T06:24:40;18.67;;;4.15;;
45388;SDS011;31127;52.078;4.370;2022-09-09T06:29:42;13.43;;;4.65;;
45388;SDS011;31127;52.078;4.370;2022-09-09T06:34:47;12.10;;;4.63;;
45388;SDS011;31127;52.078;4.370;2022-09-09T06:39:51;12.68;;;4.15;;
45388;SDS011;31127;52.078;4.370;2022-09-09T06:50:07;14.48;;;4.30;;
45388;SDS011;31127;52.078;4.370;2022-09-09T06:55:14;17.92;;;4.90;;
45388;SDS011;31127;52.078;4.370;2022-09-09T07:00:17;14.15;;;4.68;;
45388;SDS011;31127;52.078;4.370;2022-09-09T07:05:34;16.10;;;4.68;;
45388;SDS011;31127;52.078;4.370;2022-09-09T07:10:43;16.55;;;5.22;;
45388;SDS011;31127;52.078;4.370;2022-09-09T07:15:52;12.68;;;5.40;;
45388;SDS011;31127;52.078;4.370;2022-09-09T07:20:54;12.90;;;4.95;;
45388;SDS011;31127;52.078;4.370;2022-09-09T07:25:57;15.85;;;4.93;;
45388;SDS011;31127;52.078;4.370;2022-09-09T07:31:00;13.52;;;5.25;;
45388;SDS011;31127;52.078;4.370;2022-09-09T07:36:19;15.38;;;6.18;;
45388;SDS011;31127;52.078;4.370;2022-09-09T07:41:25;11.32;;;4.65;;
45388;SDS011;31127;52.078;4.370;2022-09-09T07:46:27;18.17;;;4.97;;
45388;SDS011;31127;52.078;4.370;2022-09-09T07:51:34;13.98;;;4.90;;
45388;SDS011;31127;52.078;4.370;2022-09-09T07:56:44;19.83;;;6.35;;
45388;SDS011;31127;52.078;4.370;2022-09-09T08:01:49;12.95;;;5.60;;
45388;SDS011;31127;52.078;4.370;2022-09-09T08:07:01;14.02;;;4.70;;
45388;SDS011;31127;52.078;4.370;2022-09-09T08:12:11;9.02;;;4.20;;
45388;SDS011;31127;52.078;4.370;2022-09-09T08:17:14;14.95;;;4.88;;
45388;SDS011;31127;52.078;4.370;2022-09-09T08:22:17;13.68;;;3.75;;
45388;SDS011;31127;52.078;4.370;2022-09-09T08:27:26;17.08;;;4.45;;
45388;SDS011;31127;52.078;4.370;2022-09-09T08:32:35;11.02;;;4.18;;
45388;SDS011;31127;52.078;4.370;2022-09-09T08:37:37;12.57;;;4.40;;
45388;SDS011;31127;52.078;4.370;2022-09-09T08:58:17;14.30;;;3.75;;
45388;SDS011;31127;52.078;4.370;2022-09-09T09:19:21;13.15;;;4.93;;
45388;SDS011;31127;52.078;4.370;2022-09-09T09:29:43;16.55;;;3.97;;
45388;SDS011;31127;52.078;4.370;2022-09-09T09:34:54;16.00;;;5.72;;
45388;SDS011;31127;52.078;4.370;2022-09-09T09:40:07;13.40;;;3.53;;
45388;SDS011;31127;52.078;4.370;2022-09-09T09:45:27;9.95;;;3.67;;
45388;SDS011;31127;52.078;4.370;2022-09-09T09:50:33;9.05;;;2.78;;
45388;SDS011;31127;52.078;4.370;2022-09-09T09:55:36;16.88;;;3.83;;
45388;SDS011;31127;52.078;4.370;2022-09-09T10:00:49;10.45;;;4.15;;
45388;SDS011;31127;52.078;4.370;2022-09-09T10:06:01;15.13;;;5.68;;
45388;SDS011;31127;52.078;4.370;2022-09-09T10:21:33;10.60;;;4.47;;
45388;SDS011;31127;52.078;4.370;2022-09-09T10:26:46;10.13;;;4.13;;
45388;SDS011;31127;52.078;4.370;2022-09-09T10:36:55;17.88;;;5.32;;
45388;SDS011;31127;52.078;4.370;2022-09-09T10:42:05;17.88;;;5.90;;
45388;SDS011;31127;52.078;4.370;2022-09-09T10:47:19;13.20;;;4.95;;
45388;SDS011;31127;52.078;4.370;2022-09-09T10:52:31;10.68;;;4.72;;
45388;SDS011;31127;52.078;4.370;2022-09-09T10:57:39;12.85;;;4.07;;
45388;SDS011;31127;52.078;4.370;2022-09-09T11:02:43;12.20;;;4.18;;
45388;SDS011;31127;52.078;4.370;2022-09-09T11:08:01;10.73;;;4.28;;
45388;SDS011;31127;52.078;4.370;2022-09-09T11:13:05;5.95;;;3.35;;
45388;SDS011;31127;52.078;4.370;2022-09-09T11:18:11;8.40;;;2.90;;
45388;SDS011;31127;52.078;4.370;2022-09-09T11:23:25;7.57;;;3.38;;
45388;SDS011;31127;52.078;4.370;2022-09-09T11:28:32;7.65;;;3.33;;
45388;SDS011;31127;52.078;4.370;2022-09-09T11:33:42;10.38;;;3.90;;
45388;SDS011;31127;52.078;4.370;2022-09-09T11:38:51;22.48;;;5.15;;
45388;SDS011;31127;52.078;4.370;2022-09-09T11:43:54;11.65;;;5.03;;
45388;SDS011;31127;52.078;4.370;2022-09-09T11:48:59;14.13;;;5.95;;
45388;SDS011;31127;52.078;4.370;2022-09-09T11:54:02;8.07;;;5.70;;
45388;SDS011;31127;52.078;4.370;2022-09-09T11:59:25;10.60;;;5.28;;
45388;SDS011;31127;52.078;4.370;2022-09-09T12:04:36;8.45;;;3.88;;
45388;SDS011;31127;52.078;4.370;2022-09-09T12:09:49;12.10;;;3.92;;
45388;SDS011;31127;52.078;4.370;2022-09-09T12:14:57;6.95;;;3.58;;
45388;SDS011;31127;52.078;4.370;2022-09-09T12:30:43;9.60;;;3.75;;
45388;SDS011;31127;52.078;4.370;2022-09-09T12:35:55;9.80;;;2.67;;
45388;SDS011;31127;52.078;4.370;2022-09-09T12:40:58;6.38;;;2.97;;
45388;SDS011;31127;52.078;4.370;2022-09-09T12:46:03;7.10;;;2.57;;
45388;SDS011;31127;52.078;4.370;2022-09-09T12:51:19;3.63;;;2.17;;
45388;SDS011;31127;52.078;4.370;2022-09-09T12:56:24;6.57;;;2.78;;
45388;SDS011;31127;52.078;4.370;2022-09-09T13:01:31;2.65;;;1.65;;
45388;SDS011;31127;52.078;4.370;2022-09-09T13:06:34;6.97;;;2.17;;
45388;SDS011;31127;52.078;4.370;2022-09-09T13:11:42;10.07;;;2.10;;
45388;SDS011;31127;52.078;4.370;2022-09-09T13:16:54;8.18;;;2.35;;
45388;SDS011;31127;52.078;4.370;2022-09-09T13:21:56;7.80;;;2.72;;
45388;SDS011;31127;52.078;4.370;2022-09-09T13:26:59;7.15;;;3.20;;
45388;SDS011;31127;52.078;4.370;2022-09-09T13:32:07;8.07;;;2.80;;
45388;SDS011;31127;52.078;4.370;2022-09-09T13:37:26;9.55;;;2.15;;
45388;SDS011;31127;52.078;4.370;2022-09-09T13:42:37;2.55;;;0.90;;
45388;SDS011;31127;52.078;4.370;2022-09-09T13:47:41;3.30;;;0.90;;
45388;SDS011;31127;52.078;4.370;2022-09-09T13:52:51;4.30;;;1.70;;
45388;SDS011;31127;52.078;4.370;2022-09-09T13:57:58;3.97;;;1.25;;
45388;SDS011;31127;52.078;4.370;2022-09-09T14:03:02;5.63;;;1.50;;
45388;SDS011;31127;52.078;4.370;2022-09-09T14:08:04;6.30;;;1.67;;
45388;SDS011;31127;52.078;4.370;2022-09-09T14:13:06;4.32;;;1.60;;
45388;SDS011;31127;52.078;4.370;2022-09-09T14:18:15;3.75;;;1.58;;
45388;SDS011;31127;52.078;4.370;2022-09-09T14:28:20;7.53;;;2.20;;
45388;SDS011;31127;52.078;4.370;2022-09-09T14:33:22;6.93;;;2.35;;
45388;SDS011;31127;52.078;4.370;2022-09-09T14:38:41;7.18;;;1.55;;
45388;SDS011;31127;52.078;4.370;2022-09-09T14:43:44;7.78;;;1.58;;
45388;SDS011;31127;52.078;4.370;2022-09-09T14:48:53;5.38;;;1.48;;
45388;SDS011;31127;52.078;4.370;2022-09-09T14:53:56;17.25;;;9.70;;
45388;SDS011;31127;52.078;4.370;2022-09-09T14:58:58;9.00;;;2.60;;
45388;SDS011;31127;52.078;4.370;2022-09-09T15:04:03;8.82;;;2.20;;
45388;SDS011;31127;52.078;4.370;2022-09-09T15:09:12;8.40;;;2.25;;
45388;SDS011;31127;52.078;4.370;2022-09-09T15:14:14;11.85;;;2.42;;
45388;SDS011;31127;52.078;4.370;2022-09-09T15:19:23;12.57;;;2.47;;
45388;SDS011;31127;52.078;4.370;2022-09-09T15:24:25;5.83;;;1.90;;
45388;SDS011;31127;52.078;4.370;2022-09-09T15:29:28;5.10;;;1.88;;
45388;SDS011;31127;52.078;4.370;2022-09-09T15:34:30;6.17;;;1.73;;
45388;SDS011;31127;52.078;4.370;2022-09-09T15:39:39;6.35;;;2.67;;
45388;SDS011;31127;52.078;4.370;2022-09-09T15:44:42;8.50;;;2.13;;
45388;SDS011;31127;52.078;4.370;2022-09-09T15:49:44;4.70;;;2.00;;
45388;SDS011;31127;52.078;4.370;2022-09-09T15:54:53;8.73;;;2.30;;
45388;SDS011;31127;52.078;4.370;2022-09-09T15:59:55;7.93;;;2.97;;
45388;SDS011;31127;52.078;4.370;2022-09-09T16:05:00;7.18;;;2.60;;
45388;SDS011;31127;52.078;4.370;2022-09-09T16:10:02;9.13;;;2.90;;
45388;SDS011;31127;52.078;4.370;2022-09-09T16:15:11;12.47;;;3.83;;
45388;SDS011;31127;52.078;4.370;2022-09-09T16:20:14;11.50;;;3.90;;
45388;SDS011;31127;52.078;4.370;2022-09-09T16:25:23;8.13;;;3.80;;
45388;SDS011;31127;52.078;4.370;2022-09-09T16:30:33;9.93;;;4.88;;
45388;SDS011;31127;52.078;4.370;2022-09-09T16:35:36;10.15;;;5.78;;
45388;SDS011;31127;52.078;4.370;2022-09-09T16:45:43;13.65;;;6.18;;
45388;SDS011;31127;52.078;4.370;2022-09-09T16:51:09;14.18;;;5.75;;
45388;SDS011;31127;52.078;4.370;2022-09-09T16:56:13;11.52;;;5.22;;
45388;SDS011;31127;52.078;4.370;2022-09-09T17:01:15;15.52;;;6.75;;
45388;SDS011;31127;52.078;4.370;2022-09-09T17:06:24;16.45;;;8.90;;
45388;SDS011;31127;52.078;4.370;2022-09-09T17:16:30;17.63;;;7.10;;
45388;SDS011;31127;52.078;4.370;2022-09-09T17:26:34;8.73;;;3.97;;
45388;SDS011;31127;52.078;4.370;2022-09-09T17:31:36;13.85;;;4.28;;
45388;SDS011;31127;52.078;4.370;2022-09-09T17:36:38;9.85;;;4.50;;
45388;SDS011;31127;52.078;4.370;2022-09-09T17:41:40;11.55;;;3.78;;
45388;SDS011;31127;52.078;4.370;2022-09-09T17:46:43;11.13;;;4.95;;
45388;SDS011;31127;52.078;4.370;2022-09-09T17:52:05;14.32;;;4.78;;
45388;SDS011;31127;52.078;4.370;2022-09-09T17:57:07;16.80;;;8.68;;
45388;SDS011;31127;52.078;4.370;2022-09-09T18:02:11;14.10;;;5.93;;
45388;SDS011;31127;52.078;4.370;2022-09-09T18:07:12;13.07;;;5.03;;
45388;SDS011;31127;52.078;4.370;2022-09-09T18:12:15;17.65;;;6.88;;
45388;SDS011;31127;52.078;4.370;2022-09-09T18:17:16;15.65;;;6.55;;
45388;SDS011;31127;52.078;4.370;2022-09-09T18:22:19;14.65;;;4.75;;
45388;SDS011;31127;52.078;4.370;2022-09-09T18:27:20;18.80;;;5.25;;
45388;SDS011;31127;52.078;4.370;2022-09-09T18:32:22;15.52;;;4.47;;
45388;SDS011;31127;52.078;4.370;2022-09-09T18:37:35;10.82;;;4.07;;
45388;SDS011;31127;52.078;4.370;2022-09-09T18:42:58;11.52;;;4.13;;
45388;SDS011;31127;52.078;4.370;2022-09-09T18:48:00;13.38;;;4.50;;
45388;SDS011;31127;52.078;4.370;2022-09-09T18:53:02;13.73;;;4.80;;
45388;SDS011;31127;52.078;4.370;2022-09-09T18:58:24;11.10;;;4.15;;
45388;SDS011;31127;52.078;4.370;2022-09-09T19:03:26;13.23;;;4.95;;
45388;SDS011;31127;52.078;4.370;2022-09-09T19:08:28;9.57;;;4.60;;
45388;SDS011;31127;52.078;4.370;2022-09-09T19:13:32;9.70;;;3.67;;
45388;SDS011;31127;52.078;4.370;2022-09-09T19:18:54;12.98;;;3.05;;
45388;SDS011;31127;52.078;4.370;2022-09-09T19:24:00;14.35;;;5.53;;
45388;SDS011;31127;52.078;4.370;2022-09-09T19:29:03;13.65;;;2.75;;
45388;SDS011;31127;52.078;4.370;2022-09-09T19:34:05;9.70;;;3.28;;
45388;SDS011;31127;52.078;4.370;2022-09-09T19:39:07;13.68;;;3.38;;
45388;SDS011;31127;52.078;4.370;2022-09-09T19:44:11;8.75;;;2.85;;
45388;SDS011;31127;52.078;4.370;2022-09-09T19:49:14;12.85;;;3.80;;
45388;SDS011;31127;52.078;4.370;2022-09-09T19:54:16;7.95;;;4.38;;
45388;SDS011;31127;52.078;4.370;2022-09-09T19:59:30;12.27;;;4.00;;
45388;SDS011;31127;52.078;4.370;2022-09-09T20:04:32;8.00;;;3.17;;
45388;SDS011;31127;52.078;4.370;2022-09-09T20:09:36;28.17;;;17.55;;
45388;SDS011;31127;52.078;4.370;2022-09-09T20:14:38;8.75;;;3.30;;
45388;SDS011;31127;52.078;4.370;2022-09-09T20:19:40;12.98;;;4.00;;
45388;SDS011;31127;52.078;4.370;2022-09-09T20:24:42;15.40;;;4.95;;
45388;SDS011;31127;52.078;4.370;2022-09-09T20:29:44;12.30;;;5.43;;
45388;SDS011;31127;52.078;4.370;2022-09-09T20:34:48;18.58;;;7.47;;
45388;SDS011;31127;52.078;4.370;2022-09-09T20:44:53;15.85;;;6.40;;
45388;SDS011;31127;52.078;4.370;2022-09-09T20:49:56;18.73;;;7.13;;
45388;SDS011;31127;52.078;4.370;2022-09-09T21:00:02;15.13;;;5.03;;
45388;SDS011;31127;52.078;4.370;2022-09-09T21:05:04;13.82;;;4.68;;
45388;SDS011;31127;52.078;4.370;2022-09-09T21:10:06;13.40;;;5.07;;
45388;SDS011;31127;52.078;4.370;2022-09-09T21:15:08;25.98;;;7.90;;
45388;SDS011;31127;52.078;4.370;2022-09-09T21:20:10;17.25;;;4.97;;
45388;SDS011;31127;52.078;4.370;2022-09-09T21:25:37;18.73;;;5.22;;
45388;SDS011;31127;52.078;4.370;2022-09-09T21:30:39;13.60;;;5.30;;
45388;SDS011;31127;52.078;4.370;2022-09-09T21:35:44;19.10;;;5.55;;
45388;SDS011;31127;52.078;4.370;2022-09-09T21:40:46;14.88;;;5.28;;
45388;SDS011;31127;52.078;4.370;2022-09-09T21:45:51;12.63;;;5.20;;
45388;SDS011;31127;52.078;4.370;2022-09-09T21:50:54;17.33;;;6.53;;
45388;SDS011;31127;52.078;4.370;2022-09-09T21:55:59;17.05;;;6.25;;
45388;SDS011;31127;52.078;4.370;2022-09-09T22:01:06;15.63;;;6.80;;
45388;SDS011;31127;52.078;4.370;2022-09-09T22:06:09;18.75;;;7.75;;
45388;SDS011;31127;52.078;4.370;2022-09-09T22:11:13;19.48;;;7.32;;
45388;SDS011;31127;52.078;4.370;2022-09-09T22:16:16;19.70;;;8.52;;
45388;SDS011;31127;52.078;4.370;2022-09-09T22:21:18;33.53;;;10.68;;
45388;SDS011;31127;52.078;4.370;2022-09-09T22:26:37;18.05;;;8.38;;
45388;SDS011;31127;52.078;4.370;2022-09-09T22:31:39;19.73;;;7.45;;
45388;SDS011;31127;52.078;4.370;2022-09-09T22:37:01;17.27;;;5.47;;
45388;SDS011;31127;52.078;4.370;2022-09-09T22:42:03;10.48;;;4.88;;
45388;SDS011;31127;52.078;4.370;2022-09-09T22:47:06;14.30;;;5.80;;
45388;SDS011;31127;52.078;4.370;2022-09-09T22:52:08;14.23;;;6.07;;
45388;SDS011;31127;52.078;4.370;2022-09-09T22:57:11;11.27;;;5.30;;
45388;SDS011;31127;52.078;4.370;2022-09-09T23:02:14;16.13;;;6.35;;
45388;SDS011;31127;52.078;4.370;2022-09-09T23:07:16;12.70;;;6.13;;
45388;SDS011;31127;52.078;4.370;2022-09-09T23:12:23;11.60;;;6.10;;
45388;SDS011;31127;52.078;4.370;2022-09-09T23:17:26;15.93;;;5.78;;
45388;SDS011;31127;52.078;4.370;2022-09-09T23:22:28;15.85;;;5.93;;
45388;SDS011;31127;52.078;4.370;2022-09-09T23:27:31;18.13;;;6.93;;
45388;SDS011;31127;52.078;4.370;2022-09-09T23:32:33;16.92;;;6.18;;
45388;SDS011;31127;52.078;4.370;2022-09-09T23:37:35;13.70;;;4.55;;
45388;SDS011;31127;52.078;4.370;2022-09-09T23:42:37;8.65;;;3.63;;
45388;SDS011;31127;52.078;4.370;2022-09-09T23:47:39;9.20;;;3.70;;
45388;SDS011;31127;52.078;4.370;2022-09-09T23:52:41;8.95;;;2.95;;
45388;SDS011;31127;52.078;4.370;2022-09-09T23:57:44;14.60;;;3.60;;
